sensor_id;sensor_type;location;lat;lon;timestamp;temperature;humidity
24262;DHT22;12385;51.412;5.540;2023-05-18T00:02:24;11.10;92.80
24262;DHT22;12385;51.412;5.540;2023-05-18T00:04:50;11.10;92.90
24262;DHT22;12385;51.412;5.540;2023-05-18T00:07:16;11.00;93.00
24262;DHT22;12385;51.412;5.540;2023-05-18T00:09:42;10.90;93.20
24262;DHT22;12385;51.412;5.540;2023-05-18T00:12:08;10.90;93.30
24262;DHT22;12385;51.412;5.540;2023-05-18T00:14:36;10.90;93.40
24262;DHT22;12385;51.412;5.540;2023-05-18T00:17:02;10.90;93.50
24262;DHT22;12385;51.412;5.540;2023-05-18T00:19:28;10.80;93.70
24262;DHT22;12385;51.412;5.540;2023-05-18T00:21:56;10.80;93.80
24262;DHT22;12385;51.412;5.540;2023-05-18T00:24:22;10.80;93.90
24262;DHT22;12385;51.412;5.540;2023-05-18T00:26:48;10.80;94.10
24262;DHT22;12385;51.412;5.540;2023-05-18T00:29:14;10.70;94.20
24262;DHT22;12385;51.412;5.540;2023-05-18T00:31:40;10.70;94.40
24262;DHT22;12385;51.412;5.540;2023-05-18T00:34:08;10.70;94.60
24262;DHT22;12385;51.412;5.540;2023-05-18T00:36:34;10.60;94.70
24262;DHT22;12385;51.412;5.540;2023-05-18T00:39:00;10.60;94.90
24262;DHT22;12385;51.412;5.540;2023-05-18T00:41:27;10.50;95.00
24262;DHT22;12385;51.412;5.540;2023-05-18T00:43:53;10.50;95.20
24262;DHT22;12385;51.412;5.540;2023-05-18T00:46:19;10.40;95.40
24262;DHT22;12385;51.412;5.540;2023-05-18T00:48:45;10.30;95.60
24262;DHT22;12385;51.412;5.540;2023-05-18T00:51:11;10.30;95.80
24262;DHT22;12385;51.412;5.540;2023-05-18T00:53:37;10.30;95.90
24262;DHT22;12385;51.412;5.540;2023-05-18T00:56:03;10.20;96.20
24262;DHT22;12385;51.412;5.540;2023-05-18T00:58:29;10.10;96.40
24262;DHT22;12385;51.412;5.540;2023-05-18T01:00:56;10.10;96.70
24262;DHT22;12385;51.412;5.540;2023-05-18T01:03:22;10.10;97.00
24262;DHT22;12385;51.412;5.540;2023-05-18T01:05:47;10.00;97.20
24262;DHT22;12385;51.412;5.540;2023-05-18T01:08:15;10.00;97.30
24262;DHT22;12385;51.412;5.540;2023-05-18T01:10:42;10.00;97.70
24262;DHT22;12385;51.412;5.540;2023-05-18T01:13:13;10.00;97.40
24262;DHT22;12385;51.412;5.540;2023-05-18T01:15:40;9.90;97.60
24262;DHT22;12385;51.412;5.540;2023-05-18T01:18:10;9.90;97.80
24262;DHT22;12385;51.412;5.540;2023-05-18T01:26:29;9.70;98.20
24262;DHT22;12385;51.412;5.540;2023-05-18T01:28:58;9.60;98.60
24262;DHT22;12385;51.412;5.540;2023-05-18T01:31:24;9.60;98.90
24262;DHT22;12385;51.412;5.540;2023-05-18T01:33:51;9.60;99.00
24262;DHT22;12385;51.412;5.540;2023-05-18T01:36:17;9.60;99.10
24262;DHT22;12385;51.412;5.540;2023-05-18T01:38:43;9.60;99.20
24262;DHT22;12385;51.412;5.540;2023-05-18T01:41:22;9.60;99.40
24262;DHT22;12385;51.412;5.540;2023-05-18T01:47:11;9.50;99.60
24262;DHT22;12385;51.412;5.540;2023-05-18T01:50:03;9.50;99.60
24262;DHT22;12385;51.412;5.540;2023-05-18T01:52:43;9.40;99.90
24262;DHT22;12385;51.412;5.540;2023-05-18T01:55:11;9.40;99.90
24262;DHT22;12385;51.412;5.540;2023-05-18T01:57:40;9.30;99.90
24262;DHT22;12385;51.412;5.540;2023-05-18T02:00:07;9.30;99.90
24262;DHT22;12385;51.412;5.540;2023-05-18T02:02:34;9.20;99.90
24262;DHT22;12385;51.412;5.540;2023-05-18T02:05:01;9.20;99.90
24262;DHT22;12385;51.412;5.540;2023-05-18T02:07:26;9.10;99.90
24262;DHT22;12385;51.412;5.540;2023-05-18T02:09:52;9.10;99.90
24262;DHT22;12385;51.412;5.540;2023-05-18T02:12:18;9.10;99.90
24262;DHT22;12385;51.412;5.540;2023-05-18T02:14:43;9.00;99.90
24262;DHT22;12385;51.412;5.540;2023-05-18T02:17:09;9.10;99.90
24262;DHT22;12385;51.412;5.540;2023-05-18T02:19:36;9.00;99.90
24262;DHT22;12385;51.412;5.540;2023-05-18T02:22:06;9.00;99.90
24262;DHT22;12385;51.412;5.540;2023-05-18T02:24:34;9.00;99.90
24262;DHT22;12385;51.412;5.540;2023-05-18T02:26:59;9.00;99.90
24262;DHT22;12385;51.412;5.540;2023-05-18T02:29:25;9.00;99.90
24262;DHT22;12385;51.412;5.540;2023-05-18T02:31:52;9.00;99.90
24262;DHT22;12385;51.412;5.540;2023-05-18T02:34:18;9.00;99.90
24262;DHT22;12385;51.412;5.540;2023-05-18T02:36:46;8.90;99.90
24262;DHT22;12385;51.412;5.540;2023-05-18T02:39:13;8.90;99.90
24262;DHT22;12385;51.412;5.540;2023-05-18T02:41:38;8.90;99.90
24262;DHT22;12385;51.412;5.540;2023-05-18T02:44:04;8.80;99.90
24262;DHT22;12385;51.412;5.540;2023-05-18T02:46:31;8.80;99.90
24262;DHT22;12385;51.412;5.540;2023-05-18T02:48:56;8.80;99.90
24262;DHT22;12385;51.412;5.540;2023-05-18T02:51:22;8.80;99.90
24262;DHT22;12385;51.412;5.540;2023-05-18T02:53:50;8.80;99.90
24262;DHT22;12385;51.412;5.540;2023-05-18T02:56:16;8.80;99.90
24262;DHT22;12385;51.412;5.540;2023-05-18T02:58:44;8.70;99.90
24262;DHT22;12385;51.412;5.540;2023-05-18T03:01:10;8.70;99.90
24262;DHT22;12385;51.412;5.540;2023-05-18T03:03:39;8.80;99.90
24262;DHT22;12385;51.412;5.540;2023-05-18T03:06:07;8.70;99.90
24262;DHT22;12385;51.412;5.540;2023-05-18T03:08:34;8.80;99.90
24262;DHT22;12385;51.412;5.540;2023-05-18T03:11:01;8.80;99.90
24262;DHT22;12385;51.412;5.540;2023-05-18T03:13:27;8.70;99.90
24262;DHT22;12385;51.412;5.540;2023-05-18T03:15:53;8.70;99.90
24262;DHT22;12385;51.412;5.540;2023-05-18T03:18:22;8.70;99.90
24262;DHT22;12385;51.412;5.540;2023-05-18T03:20:49;8.70;99.90
24262;DHT22;12385;51.412;5.540;2023-05-18T03:23:17;8.60;99.90
24262;DHT22;12385;51.412;5.540;2023-05-18T03:25:42;8.60;99.90
24262;DHT22;12385;51.412;5.540;2023-05-18T03:28:09;8.60;99.90
24262;DHT22;12385;51.412;5.540;2023-05-18T03:30:34;8.50;99.90
24262;DHT22;12385;51.412;5.540;2023-05-18T03:33:01;8.50;99.90
24262;DHT22;12385;51.412;5.540;2023-05-18T03:35:27;8.50;99.90
24262;DHT22;12385;51.412;5.540;2023-05-18T03:37:53;8.50;99.90
24262;DHT22;12385;51.412;5.540;2023-05-18T03:40:19;8.50;99.90
24262;DHT22;12385;51.412;5.540;2023-05-18T03:42:45;8.40;99.90
24262;DHT22;12385;51.412;5.540;2023-05-18T03:45:11;8.40;99.90
24262;DHT22;12385;51.412;5.540;2023-05-18T03:47:38;8.40;99.90
24262;DHT22;12385;51.412;5.540;2023-05-18T03:50:04;8.40;99.90
24262;DHT22;12385;51.412;5.540;2023-05-18T03:52:31;8.40;99.90
24262;DHT22;12385;51.412;5.540;2023-05-18T03:54:59;8.40;99.90
24262;DHT22;12385;51.412;5.540;2023-05-18T03:57:25;8.40;99.90
24262;DHT22;12385;51.412;5.540;2023-05-18T03:59:53;8.40;99.90
24262;DHT22;12385;51.412;5.540;2023-05-18T04:02:18;8.40;99.90
24262;DHT22;12385;51.412;5.540;2023-05-18T04:04:44;8.40;99.90
24262;DHT22;12385;51.412;5.540;2023-05-18T04:07:11;8.40;99.90
24262;DHT22;12385;51.412;5.540;2023-05-18T04:09:38;8.30;99.90
24262;DHT22;12385;51.412;5.540;2023-05-18T04:12:04;8.30;99.90
24262;DHT22;12385;51.412;5.540;2023-05-18T04:14:29;8.30;99.90
24262;DHT22;12385;51.412;5.540;2023-05-18T04:16:58;8.40;99.90
24262;DHT22;12385;51.412;5.540;2023-05-18T04:19:38;8.40;99.90
24262;DHT22;12385;51.412;5.540;2023-05-18T04:22:05;8.40;99.90
24262;DHT22;12385;51.412;5.540;2023-05-18T04:24:31;8.40;99.90
24262;DHT22;12385;51.412;5.540;2023-05-18T04:26:58;8.30;99.90
24262;DHT22;12385;51.412;5.540;2023-05-18T04:29:27;8.30;99.90
24262;DHT22;12385;51.412;5.540;2023-05-18T04:31:56;8.30;99.90
24262;DHT22;12385;51.412;5.540;2023-05-18T04:34:28;8.40;99.90
24262;DHT22;12385;51.412;5.540;2023-05-18T04:36:54;8.40;99.90
24262;DHT22;12385;51.412;5.540;2023-05-18T04:39:21;8.40;99.90
24262;DHT22;12385;51.412;5.540;2023-05-18T04:41:49;8.40;99.90
24262;DHT22;12385;51.412;5.540;2023-05-18T04:44:18;8.50;99.90
24262;DHT22;12385;51.412;5.540;2023-05-18T04:46:44;8.50;99.90
24262;DHT22;12385;51.412;5.540;2023-05-18T04:49:12;8.50;99.90
24262;DHT22;12385;51.412;5.540;2023-05-18T04:51:38;8.50;99.90
24262;DHT22;12385;51.412;5.540;2023-05-18T04:54:06;8.60;99.90
24262;DHT22;12385;51.412;5.540;2023-05-18T04:56:34;8.60;99.90
24262;DHT22;12385;51.412;5.540;2023-05-18T04:59:00;8.60;99.90
24262;DHT22;12385;51.412;5.540;2023-05-18T05:01:26;8.60;99.90
24262;DHT22;12385;51.412;5.540;2023-05-18T05:03:52;8.70;99.90
24262;DHT22;12385;51.412;5.540;2023-05-18T05:06:18;8.60;99.90
24262;DHT22;12385;51.412;5.540;2023-05-18T05:08:43;8.70;99.90
24262;DHT22;12385;51.412;5.540;2023-05-18T05:11:09;8.70;99.90
24262;DHT22;12385;51.412;5.540;2023-05-18T05:13:35;8.70;99.90
24262;DHT22;12385;51.412;5.540;2023-05-18T05:16:01;8.70;99.90
24262;DHT22;12385;51.412;5.540;2023-05-18T05:18:27;8.70;99.90
24262;DHT22;12385;51.412;5.540;2023-05-18T05:20:53;8.80;99.90
24262;DHT22;12385;51.412;5.540;2023-05-18T05:23:19;8.80;99.90
24262;DHT22;12385;51.412;5.540;2023-05-18T05:25:44;8.80;99.90
24262;DHT22;12385;51.412;5.540;2023-05-18T05:28:10;8.80;99.90
24262;DHT22;12385;51.412;5.540;2023-05-18T05:30:36;8.80;99.90
24262;DHT22;12385;51.412;5.540;2023-05-18T05:33:01;8.90;99.90
24262;DHT22;12385;51.412;5.540;2023-05-18T05:35:27;8.90;99.90
24262;DHT22;12385;51.412;5.540;2023-05-18T05:37:54;8.90;99.90
24262;DHT22;12385;51.412;5.540;2023-05-18T05:40:19;8.90;99.90
24262;DHT22;12385;51.412;5.540;2023-05-18T05:42:46;9.00;99.90
24262;DHT22;12385;51.412;5.540;2023-05-18T05:45:12;9.00;99.90
24262;DHT22;12385;51.412;5.540;2023-05-18T05:47:38;9.00;99.90
24262;DHT22;12385;51.412;5.540;2023-05-18T05:50:04;9.00;99.90
24262;DHT22;12385;51.412;5.540;2023-05-18T05:52:36;9.00;99.90
24262;DHT22;12385;51.412;5.540;2023-05-18T05:55:01;9.00;99.90
24262;DHT22;12385;51.412;5.540;2023-05-18T05:57:27;9.00;99.90
24262;DHT22;12385;51.412;5.540;2023-05-18T05:59:53;9.00;99.90
24262;DHT22;12385;51.412;5.540;2023-05-18T06:02:19;9.00;99.90
24262;DHT22;12385;51.412;5.540;2023-05-18T06:04:45;9.00;99.90
24262;DHT22;12385;51.412;5.540;2023-05-18T06:07:11;9.10;99.90
24262;DHT22;12385;51.412;5.540;2023-05-18T06:09:37;9.10;99.90
24262;DHT22;12385;51.412;5.540;2023-05-18T06:12:03;9.10;99.90
24262;DHT22;12385;51.412;5.540;2023-05-18T06:14:29;9.10;99.90
24262;DHT22;12385;51.412;5.540;2023-05-18T06:16:54;9.10;99.90
24262;DHT22;12385;51.412;5.540;2023-05-18T06:19:20;9.10;99.90
24262;DHT22;12385;51.412;5.540;2023-05-18T06:21:46;9.20;99.90
24262;DHT22;12385;51.412;5.540;2023-05-18T06:24:11;9.20;99.90
24262;DHT22;12385;51.412;5.540;2023-05-18T06:26:37;9.20;99.90
24262;DHT22;12385;51.412;5.540;2023-05-18T06:29:05;9.30;99.90
24262;DHT22;12385;51.412;5.540;2023-05-18T06:31:33;9.20;99.90
24262;DHT22;12385;51.412;5.540;2023-05-18T06:33:59;9.30;99.90
24262;DHT22;12385;51.412;5.540;2023-05-18T06:36:24;9.40;99.90
24262;DHT22;12385;51.412;5.540;2023-05-18T06:38:50;9.40;99.90
24262;DHT22;12385;51.412;5.540;2023-05-18T06:41:16;9.50;99.90
24262;DHT22;12385;51.412;5.540;2023-05-18T06:43:42;9.60;99.90
24262;DHT22;12385;51.412;5.540;2023-05-18T06:46:07;9.60;99.90
24262;DHT22;12385;51.412;5.540;2023-05-18T06:48:34;9.70;99.90
24262;DHT22;12385;51.412;5.540;2023-05-18T06:51:00;9.80;99.90
24262;DHT22;12385;51.412;5.540;2023-05-18T06:53:26;9.80;99.90
24262;DHT22;12385;51.412;5.540;2023-05-18T06:55:51;9.90;99.90
24262;DHT22;12385;51.412;5.540;2023-05-18T06:58:19;10.00;99.90
24262;DHT22;12385;51.412;5.540;2023-05-18T07:00:44;10.10;99.90
24262;DHT22;12385;51.412;5.540;2023-05-18T07:03:10;10.10;99.90
24262;DHT22;12385;51.412;5.540;2023-05-18T07:05:37;10.20;99.90
24262;DHT22;12385;51.412;5.540;2023-05-18T07:08:03;10.40;99.90
24262;DHT22;12385;51.412;5.540;2023-05-18T07:10:30;10.50;99.90
24262;DHT22;12385;51.412;5.540;2023-05-18T07:12:55;10.60;99.90
24262;DHT22;12385;51.412;5.540;2023-05-18T07:15:22;10.70;99.90
24262;DHT22;12385;51.412;5.540;2023-05-18T07:17:50;10.80;99.90
24262;DHT22;12385;51.412;5.540;2023-05-18T07:20:16;10.90;99.90
24262;DHT22;12385;51.412;5.540;2023-05-18T07:22:41;11.00;99.90
24262;DHT22;12385;51.412;5.540;2023-05-18T07:25:07;11.10;99.90
24262;DHT22;12385;51.412;5.540;2023-05-18T07:27:33;11.20;99.90
24262;DHT22;12385;51.412;5.540;2023-05-18T07:29:59;11.20;99.90
24262;DHT22;12385;51.412;5.540;2023-05-18T07:32:24;11.30;99.90
24262;DHT22;12385;51.412;5.540;2023-05-18T07:34:51;11.40;99.90
24262;DHT22;12385;51.412;5.540;2023-05-18T07:37:17;11.50;99.90
24262;DHT22;12385;51.412;5.540;2023-05-18T07:39:44;11.50;99.90
24262;DHT22;12385;51.412;5.540;2023-05-18T07:42:10;11.60;99.90
24262;DHT22;12385;51.412;5.540;2023-05-18T07:44:36;11.60;99.90
24262;DHT22;12385;51.412;5.540;2023-05-18T07:47:03;11.80;99.90
24262;DHT22;12385;51.412;5.540;2023-05-18T07:49:28;11.80;99.90
24262;DHT22;12385;51.412;5.540;2023-05-18T07:51:54;11.90;99.90
24262;DHT22;12385;51.412;5.540;2023-05-18T07:54:19;11.90;99.90
24262;DHT22;12385;51.412;5.540;2023-05-18T07:56:46;12.00;99.90
24262;DHT22;12385;51.412;5.540;2023-05-18T07:59:12;12.00;99.90
24262;DHT22;12385;51.412;5.540;2023-05-18T08:01:38;12.10;99.90
24262;DHT22;12385;51.412;5.540;2023-05-18T08:04:04;12.20;99.90
24262;DHT22;12385;51.412;5.540;2023-05-18T08:06:29;12.20;99.90
24262;DHT22;12385;51.412;5.540;2023-05-18T08:08:56;12.30;99.90
24262;DHT22;12385;51.412;5.540;2023-05-18T08:11:22;12.30;99.90
24262;DHT22;12385;51.412;5.540;2023-05-18T08:13:48;12.30;99.90
24262;DHT22;12385;51.412;5.540;2023-05-18T08:16:14;12.30;99.90
24262;DHT22;12385;51.412;5.540;2023-05-18T08:18:40;12.30;99.90
24262;DHT22;12385;51.412;5.540;2023-05-18T08:21:06;12.40;99.90
24262;DHT22;12385;51.412;5.540;2023-05-18T08:23:34;12.40;99.90
24262;DHT22;12385;51.412;5.540;2023-05-18T08:26:02;12.50;99.90
24262;DHT22;12385;51.412;5.540;2023-05-18T08:28:28;12.60;99.90
24262;DHT22;12385;51.412;5.540;2023-05-18T08:30:54;12.70;99.90
24262;DHT22;12385;51.412;5.540;2023-05-18T08:33:20;12.70;99.90
24262;DHT22;12385;51.412;5.540;2023-05-18T08:35:46;12.80;99.90
24262;DHT22;12385;51.412;5.540;2023-05-18T08:38:11;12.90;99.90
24262;DHT22;12385;51.412;5.540;2023-05-18T08:41:01;13.00;99.90
24262;DHT22;12385;51.412;5.540;2023-05-18T08:43:28;13.00;99.90
24262;DHT22;12385;51.412;5.540;2023-05-18T08:48:57;13.20;99.90
24262;DHT22;12385;51.412;5.540;2023-05-18T08:51:28;13.30;99.90
24262;DHT22;12385;51.412;5.540;2023-05-18T08:53:54;13.30;99.30
24262;DHT22;12385;51.412;5.540;2023-05-18T08:56:23;13.30;98.80
24262;DHT22;12385;51.412;5.540;2023-05-18T08:58:51;13.30;98.40
24262;DHT22;12385;51.412;5.540;2023-05-18T09:01:19;13.40;98.60
24262;DHT22;12385;51.412;5.540;2023-05-18T09:03:46;13.50;98.00
24262;DHT22;12385;51.412;5.540;2023-05-18T09:06:14;13.60;97.30
24262;DHT22;12385;51.412;5.540;2023-05-18T09:08:40;13.60;97.20
24262;DHT22;12385;51.412;5.540;2023-05-18T09:11:07;13.70;97.40
24262;DHT22;12385;51.412;5.540;2023-05-18T09:13:34;13.90;97.00
24262;DHT22;12385;51.412;5.540;2023-05-18T09:16:00;14.00;96.40
24262;DHT22;12385;51.412;5.540;2023-05-18T09:18:26;14.20;96.00
24262;DHT22;12385;51.412;5.540;2023-05-18T09:20:51;14.30;95.40
24262;DHT22;12385;51.412;5.540;2023-05-18T09:23:17;14.30;95.30
24262;DHT22;12385;51.412;5.540;2023-05-18T09:25:44;14.40;95.30
24262;DHT22;12385;51.412;5.540;2023-05-18T09:28:13;14.30;95.30
24262;DHT22;12385;51.412;5.540;2023-05-18T09:30:44;14.40;95.20
24262;DHT22;12385;51.412;5.540;2023-05-18T09:33:16;14.40;95.10
24262;DHT22;12385;51.412;5.540;2023-05-18T09:35:44;14.50;94.60
24262;DHT22;12385;51.412;5.540;2023-05-18T09:38:20;14.60;94.30
24262;DHT22;12385;51.412;5.540;2023-05-18T09:40:48;14.70;93.90
24262;DHT22;12385;51.412;5.540;2023-05-18T09:43:16;14.80;93.70
24262;DHT22;12385;51.412;5.540;2023-05-18T09:45:46;14.90;93.30
24262;DHT22;12385;51.412;5.540;2023-05-18T09:48:15;14.90;92.70
24262;DHT22;12385;51.412;5.540;2023-05-18T09:50:43;14.90;92.40
24262;DHT22;12385;51.412;5.540;2023-05-18T09:53:12;14.90;92.00
24262;DHT22;12385;51.412;5.540;2023-05-18T09:55:46;15.00;91.70
24262;DHT22;12385;51.412;5.540;2023-05-18T09:58:13;14.90;91.10
24262;DHT22;12385;51.412;5.540;2023-05-18T10:00:43;14.80;91.50
24262;DHT22;12385;51.412;5.540;2023-05-18T10:03:20;14.80;91.40
24262;DHT22;12385;51.412;5.540;2023-05-18T10:05:46;14.80;91.20
24262;DHT22;12385;51.412;5.540;2023-05-18T10:08:18;14.80;91.10
24262;DHT22;12385;51.412;5.540;2023-05-18T10:10:47;14.80;90.80
24262;DHT22;12385;51.412;5.540;2023-05-18T10:13:15;14.90;90.60
24262;DHT22;12385;51.412;5.540;2023-05-18T10:15:54;15.00;90.40
24262;DHT22;12385;51.412;5.540;2023-05-18T10:18:28;15.00;90.40
24262;DHT22;12385;51.412;5.540;2023-05-18T10:20:59;15.20;90.70
24262;DHT22;12385;51.412;5.540;2023-05-18T10:23:40;15.40;90.70
24262;DHT22;12385;51.412;5.540;2023-05-18T10:26:07;15.50;89.80
24262;DHT22;12385;51.412;5.540;2023-05-18T10:28:41;15.50;89.10
24262;DHT22;12385;51.412;5.540;2023-05-18T10:31:07;15.50;88.40
24262;DHT22;12385;51.412;5.540;2023-05-18T10:33:35;15.50;88.30
24262;DHT22;12385;51.412;5.540;2023-05-18T10:36:02;15.50;88.20
24262;DHT22;12385;51.412;5.540;2023-05-18T10:38:29;15.60;87.50
24262;DHT22;12385;51.412;5.540;2023-05-18T10:40:56;15.70;87.50
24262;DHT22;12385;51.412;5.540;2023-05-18T10:43:24;15.80;87.20
24262;DHT22;12385;51.412;5.540;2023-05-18T10:45:57;15.90;87.70
24262;DHT22;12385;51.412;5.540;2023-05-18T10:48:24;16.00;87.60
24262;DHT22;12385;51.412;5.540;2023-05-18T10:50:52;16.20;86.90
24262;DHT22;12385;51.412;5.540;2023-05-18T10:53:29;16.40;85.40
24262;DHT22;12385;51.412;5.540;2023-05-18T10:55:55;16.50;83.70
24262;DHT22;12385;51.412;5.540;2023-05-18T10:58:24;16.40;82.30
24262;DHT22;12385;51.412;5.540;2023-05-18T11:00:57;16.40;82.20
24262;DHT22;12385;51.412;5.540;2023-05-18T11:03:23;16.40;82.20
24262;DHT22;12385;51.412;5.540;2023-05-18T11:06:05;16.40;81.50
24262;DHT22;12385;51.412;5.540;2023-05-18T11:08:32;16.50;81.10
24262;DHT22;12385;51.412;5.540;2023-05-18T11:11:00;16.50;81.00
24262;DHT22;12385;51.412;5.540;2023-05-18T11:13:29;16.50;80.00
24262;DHT22;12385;51.412;5.540;2023-05-18T11:18:49;16.70;79.30
24262;DHT22;12385;51.412;5.540;2023-05-18T11:21:50;16.90;78.70
24262;DHT22;12385;51.412;5.540;2023-05-18T11:24:35;17.20;77.70
24262;DHT22;12385;51.412;5.540;2023-05-18T11:27:21;17.40;76.90
24262;DHT22;12385;51.412;5.540;2023-05-18T11:29:48;17.50;75.50
24262;DHT22;12385;51.412;5.540;2023-05-18T11:32:25;17.70;75.30
24262;DHT22;12385;51.412;5.540;2023-05-18T11:34:53;17.80;74.60
24262;DHT22;12385;51.412;5.540;2023-05-18T11:40:42;18.10;73.20
24262;DHT22;12385;51.412;5.540;2023-05-18T11:42:57;18.20;72.70
24262;DHT22;12385;51.412;5.540;2023-05-18T11:45:24;18.20;71.60
24262;DHT22;12385;51.412;5.540;2023-05-18T11:47:55;18.20;71.20
24262;DHT22;12385;51.412;5.540;2023-05-18T11:50:25;18.30;70.60
24262;DHT22;12385;51.412;5.540;2023-05-18T11:52:51;18.30;70.60
24262;DHT22;12385;51.412;5.540;2023-05-18T11:55:19;18.40;69.60
24262;DHT22;12385;51.412;5.540;2023-05-18T11:57:48;18.40;69.20
24262;DHT22;12385;51.412;5.540;2023-05-18T12:00:16;18.40;68.90
24262;DHT22;12385;51.412;5.540;2023-05-18T12:02:45;18.50;69.30
24262;DHT22;12385;51.412;5.540;2023-05-18T12:05:11;18.60;69.20
24262;DHT22;12385;51.412;5.540;2023-05-18T12:07:38;18.60;68.30
24262;DHT22;12385;51.412;5.540;2023-05-18T12:10:07;18.60;67.70
24262;DHT22;12385;51.412;5.540;2023-05-18T12:12:34;18.70;67.30
24262;DHT22;12385;51.412;5.540;2023-05-18T12:15:07;18.70;66.50
24262;DHT22;12385;51.412;5.540;2023-05-18T12:17:40;18.70;66.10
24262;DHT22;12385;51.412;5.540;2023-05-18T12:20:20;18.70;64.70
24262;DHT22;12385;51.412;5.540;2023-05-18T12:22:48;18.50;64.60
24262;DHT22;12385;51.412;5.540;2023-05-18T12:25:21;18.40;64.60
24262;DHT22;12385;51.412;5.540;2023-05-18T12:27:48;18.30;64.40
24262;DHT22;12385;51.412;5.540;2023-05-18T12:30:20;18.30;65.80
24262;DHT22;12385;51.412;5.540;2023-05-18T12:32:54;18.30;64.50
24262;DHT22;12385;51.412;5.540;2023-05-18T12:35:24;18.30;64.70
24262;DHT22;12385;51.412;5.540;2023-05-18T12:37:50;18.30;65.60
24262;DHT22;12385;51.412;5.540;2023-05-18T12:40:18;18.20;64.80
24262;DHT22;12385;51.412;5.540;2023-05-18T12:45:19;18.40;63.70
24262;DHT22;12385;51.412;5.540;2023-05-18T12:47:45;18.30;62.70
24262;DHT22;12385;51.412;5.540;2023-05-18T12:50:15;18.30;62.20
24262;DHT22;12385;51.412;5.540;2023-05-18T12:52:40;18.50;62.30
24262;DHT22;12385;51.412;5.540;2023-05-18T12:55:07;18.60;62.20
24262;DHT22;12385;51.412;5.540;2023-05-18T12:57:36;18.70;62.30
24262;DHT22;12385;51.412;5.540;2023-05-18T13:00:06;18.90;60.80
24262;DHT22;12385;51.412;5.540;2023-05-18T13:02:35;19.00;60.40
24262;DHT22;12385;51.412;5.540;2023-05-18T13:05:13;19.00;60.00
24262;DHT22;12385;51.412;5.540;2023-05-18T13:07:43;19.00;59.30
24262;DHT22;12385;51.412;5.540;2023-05-18T13:10:11;19.10;59.90
24262;DHT22;12385;51.412;5.540;2023-05-18T13:12:47;19.20;59.60
24262;DHT22;12385;51.412;5.540;2023-05-18T13:15:20;19.50;58.70
24262;DHT22;12385;51.412;5.540;2023-05-18T13:20:39;20.30;57.70
24262;DHT22;12385;51.412;5.540;2023-05-18T13:23:13;20.60;56.40
24262;DHT22;12385;51.412;5.540;2023-05-18T13:25:39;20.90;56.40
24262;DHT22;12385;51.412;5.540;2023-05-18T13:28:09;21.10;55.00
24262;DHT22;12385;51.412;5.540;2023-05-18T13:30:53;21.10;54.40
24262;DHT22;12385;51.412;5.540;2023-05-18T13:33:19;21.10;55.30
24262;DHT22;12385;51.412;5.540;2023-05-18T13:35:46;21.50;55.00
24262;DHT22;12385;51.412;5.540;2023-05-18T13:38:13;21.80;54.20
24262;DHT22;12385;51.412;5.540;2023-05-18T13:40:40;22.00;52.90
24262;DHT22;12385;51.412;5.540;2023-05-18T13:43:06;22.00;51.90
24262;DHT22;12385;51.412;5.540;2023-05-18T13:45:34;22.00;51.60
24262;DHT22;12385;51.412;5.540;2023-05-18T13:48:08;21.90;51.20
24262;DHT22;12385;51.412;5.540;2023-05-18T13:50:34;21.70;50.50
24262;DHT22;12385;51.412;5.540;2023-05-18T13:53:00;21.40;50.70
24262;DHT22;12385;51.412;5.540;2023-05-18T13:55:26;21.30;50.80
24262;DHT22;12385;51.412;5.540;2023-05-18T13:57:51;21.40;50.50
24262;DHT22;12385;51.412;5.540;2023-05-18T14:00:18;21.50;50.00
24262;DHT22;12385;51.412;5.540;2023-05-18T14:02:45;21.60;49.90
24262;DHT22;12385;51.412;5.540;2023-05-18T14:05:12;21.80;50.00
24262;DHT22;12385;51.412;5.540;2023-05-18T14:07:41;22.00;50.00
24262;DHT22;12385;51.412;5.540;2023-05-18T14:10:12;22.10;49.00
24262;DHT22;12385;51.412;5.540;2023-05-18T14:12:39;22.20;48.80
24262;DHT22;12385;51.412;5.540;2023-05-18T14:15:08;22.30;48.50
24262;DHT22;12385;51.412;5.540;2023-05-18T14:17:34;22.40;48.00
24262;DHT22;12385;51.412;5.540;2023-05-18T14:20:00;22.60;48.00
24262;DHT22;12385;51.412;5.540;2023-05-18T14:22:27;23.00;47.40
24262;DHT22;12385;51.412;5.540;2023-05-18T14:24:54;23.30;46.70
24262;DHT22;12385;51.412;5.540;2023-05-18T14:27:20;23.60;46.80
24262;DHT22;12385;51.412;5.540;2023-05-18T14:29:47;24.00;45.80
24262;DHT22;12385;51.412;5.540;2023-05-18T14:32:13;24.20;45.30
24262;DHT22;12385;51.412;5.540;2023-05-18T14:34:38;24.40;44.30
24262;DHT22;12385;51.412;5.540;2023-05-18T14:37:04;24.40;44.20
24262;DHT22;12385;51.412;5.540;2023-05-18T14:39:30;24.30;44.10
24262;DHT22;12385;51.412;5.540;2023-05-18T14:41:55;24.30;44.50
24262;DHT22;12385;51.412;5.540;2023-05-18T14:44:21;24.40;44.30
24262;DHT22;12385;51.412;5.540;2023-05-18T14:46:47;24.70;43.90
24262;DHT22;12385;51.412;5.540;2023-05-18T14:49:14;25.00;43.90
24262;DHT22;12385;51.412;5.540;2023-05-18T14:51:39;25.40;42.80
24262;DHT22;12385;51.412;5.540;2023-05-18T14:54:07;25.50;41.90
24262;DHT22;12385;51.412;5.540;2023-05-18T14:56:32;25.50;41.70
24262;DHT22;12385;51.412;5.540;2023-05-18T14:58:58;25.50;42.10
24262;DHT22;12385;51.412;5.540;2023-05-18T15:01:24;25.80;41.60
24262;DHT22;12385;51.412;5.540;2023-05-18T15:03:49;26.10;41.20
24262;DHT22;12385;51.412;5.540;2023-05-18T15:06:15;26.30;40.80
24262;DHT22;12385;51.412;5.540;2023-05-18T15:08:40;26.60;40.50
24262;DHT22;12385;51.412;5.540;2023-05-18T15:11:07;26.70;39.90
24262;DHT22;12385;51.412;5.540;2023-05-18T15:13:33;26.90;39.70
24262;DHT22;12385;51.412;5.540;2023-05-18T15:15:58;27.00;39.40
24262;DHT22;12385;51.412;5.540;2023-05-18T15:18:24;27.10;39.20
24262;DHT22;12385;51.412;5.540;2023-05-18T15:20:50;27.20;38.40
24262;DHT22;12385;51.412;5.540;2023-05-18T15:23:15;27.10;38.40
24262;DHT22;12385;51.412;5.540;2023-05-18T15:25:42;27.10;37.70
24262;DHT22;12385;51.412;5.540;2023-05-18T15:28:07;26.80;37.40
24262;DHT22;12385;51.412;5.540;2023-05-18T15:30:36;26.70;37.50
24262;DHT22;12385;51.412;5.540;2023-05-18T15:33:01;26.80;37.30
24262;DHT22;12385;51.412;5.540;2023-05-18T15:35:28;27.10;37.30
24262;DHT22;12385;51.412;5.540;2023-05-18T15:37:54;27.20;37.00
24262;DHT22;12385;51.412;5.540;2023-05-18T15:40:20;27.30;36.60
24262;DHT22;12385;51.412;5.540;2023-05-18T15:42:45;27.10;36.30
24262;DHT22;12385;51.412;5.540;2023-05-18T15:45:12;26.90;36.10
24262;DHT22;12385;51.412;5.540;2023-05-18T15:47:38;26.60;35.90
24262;DHT22;12385;51.412;5.540;2023-05-18T15:50:05;26.30;36.30
24262;DHT22;12385;51.412;5.540;2023-05-18T15:52:31;26.20;36.60
24262;DHT22;12385;51.412;5.540;2023-05-18T15:54:57;26.10;36.70
24262;DHT22;12385;51.412;5.540;2023-05-18T15:57:23;26.20;37.00
24262;DHT22;12385;51.412;5.540;2023-05-18T15:59:48;26.20;36.60
24262;DHT22;12385;51.412;5.540;2023-05-18T16:02:14;25.90;36.70
24262;DHT22;12385;51.412;5.540;2023-05-18T16:04:40;25.60;36.50